Time;durP1;ratioP1;P1;durP2;ratioP2;P2;SDS_P1;SDS_P2;PMS_P1;PMS_P2;Temp;Humidity;BMP_temperature;BMP_pressure;BME280_temperature;BME280_humidity;BME280_pressure;Samples;Min_cycle;Max_cycle;Signal;HPM_P1;HPM_P2
2022/04/16 00:01:27;;;;;;;9.65;7.30;;;;;;;15.21;38.58;102561.81;5005593;28;20133;-76
2022/04/16 00:03:55;;;;;;;9.75;7.20;;;;;;;15.21;38.62;102567.28;5006285;28;20050;-76
2022/04/16 00:06:22;;;;;;;10.25;7.65;;;;;;;15.19;38.91;102563.75;5007209;28;20058;-76
2022/04/16 00:08:48;;;;;;;10.38;6.95;;;;;;;15.18;38.48;102566.56;5002301;28;20089;-76
2022/04/16 00:11:15;;;;;;;10.45;7.60;;;;;;;15.16;39.10;102558.44;5002112;28;20461;-76
2022/04/16 00:13:41;;;;;;;10.68;7.47;;;;;;;15.15;38.86;102555.81;5007793;28;20090;-76
2022/04/16 00:16:09;;;;;;;10.43;7.40;;;;;;;15.13;38.97;102546.81;5006106;28;20076;-76
2022/04/16 00:18:36;;;;;;;9.05;7.25;;;;;;;15.11;38.85;102546.91;5006078;28;20169;-76
2022/04/16 00:21:04;;;;;;;9.73;7.90;;;;;;;15.10;39.05;102542.41;5008667;28;20574;-75
2022/04/16 00:23:31;;;;;;;10.00;6.97;;;;;;;15.08;39.33;102549.81;5004173;28;20109;-75
2022/04/16 00:25:58;;;;;;;9.80;7.30;;;;;;;15.07;38.93;102544.44;5007973;28;20085;-75
2022/04/16 00:28:27;;;;;;;9.85;7.18;;;;;;;15.06;38.81;102545.41;4996990;28;20053;-74
2022/04/16 00:30:56;;;;;;;10.50;7.30;;;;;;;15.04;39.19;102542.78;5009101;28;20196;-75
2022/04/16 00:33:25;;;;;;;9.95;7.13;;;;;;;15.01;39.18;102540.19;5006346;28;20241;-75
2022/04/16 00:35:52;;;;;;;10.48;7.97;;;;;;;14.99;39.35;102539.41;4998806;28;20057;-75
2022/04/16 00:38:19;;;;;;;10.35;7.53;;;;;;;14.97;39.08;102543.22;4999009;28;20069;-76
2022/04/16 00:40:46;;;;;;;9.70;7.35;;;;;;;14.96;39.02;102546.91;5008233;28;20487;-75
2022/04/16 00:43:23;;;;;;;11.93;7.70;;;;;;;14.99;39.63;102546.75;5007225;28;20095;-75
2022/04/16 00:45:49;;;;;;;11.43;8.07;;;;;;;14.94;38.97;102543.38;5005072;28;20057;-75
2022/04/16 00:48:16;;;;;;;10.75;7.80;;;;;;;14.93;39.73;102538.88;5012308;28;20080;-75
2022/04/16 00:50:44;;;;;;;10.52;8.10;;;;;;;14.93;39.23;102538.88;5007185;28;20488;-75
2022/04/16 00:53:14;;;;;;;11.15;7.60;;;;;;;14.91;39.45;102541.69;5010179;28;20438;-75
2022/04/16 00:55:40;;;;;;;10.82;8.32;;;;;;;14.88;39.20;102533.69;5006984;28;20424;-75
2022/04/16 00:58:07;;;;;;;10.38;7.65;;;;;;;14.89;39.31;102540.06;5010677;28;20108;-75
2022/04/16 01:00:35;;;;;;;11.63;8.80;;;;;;;14.88;39.40;102535.56;5008370;28;20108;-75
2022/04/16 01:03:02;;;;;;;12.05;8.02;;;;;;;14.89;39.72;102540.94;5010314;28;20050;-75
2022/04/16 01:05:29;;;;;;;9.10;7.55;;;;;;;14.90;39.34;102530.88;5001172;28;20465;-75
2022/04/16 01:08:02;;;;;;;11.25;7.88;;;;;;;14.91;39.86;102538.97;5005923;28;20107;-75
2022/04/16 01:10:29;;;;;;;10.55;7.85;;;;;;;14.87;39.31;102537.41;5001030;28;20038;-75
2022/04/16 01:13:01;;;;;;;12.40;8.57;;;;;;;14.89;39.58;102540.06;5013130;28;20081;-75
2022/04/16 01:15:29;;;;;;;10.60;7.90;;;;;;;14.83;39.77;102539.41;5000951;28;20129;-75
2022/04/16 01:17:57;;;;;;;11.98;8.52;;;;;;;14.86;39.49;102543.84;5009672;28;20336;-75
2022/04/16 01:20:24;;;;;;;11.27;8.48;;;;;;;14.83;39.29;102547.63;5005433;28;20069;-75
2022/04/16 01:22:52;;;;;;;10.52;7.93;;;;;;;14.83;39.78;102544.00;5012222;28;20505;-75
2022/04/16 01:25:18;;;;;;;10.45;7.53;;;;;;;14.81;39.79;102545.97;5005723;28;20104;-75
2022/04/16 01:27:48;;;;;;;11.77;8.30;;;;;;;14.81;39.74;102545.97;5013712;28;20123;-75
2022/04/16 01:30:18;;;;;;;10.15;8.05;;;;;;;14.80;39.63;102536.00;5010881;28;20493;-75
2022/04/16 01:32:48;;;;;;;13.98;8.52;;;;;;;14.78;39.73;102536.06;4999862;28;20104;-75
2022/04/16 01:35:17;;;;;;;11.30;8.35;;;;;;;14.75;39.60;102538.97;5004406;28;20077;-75
2022/04/16 01:37:44;;;;;;;11.45;8.25;;;;;;;14.75;39.86;102535.34;5016750;28;20049;-75
2022/04/16 01:40:12;;;;;;;11.25;8.30;;;;;;;14.74;40.11;102541.81;5014024;28;20062;-75
2022/04/16 01:42:39;;;;;;;13.38;8.65;;;;;;;14.72;40.25;102546.50;5014925;28;20099;-76
2022/04/16 01:45:11;;;;;;;12.30;9.15;;;;;;;14.73;40.23;102551.00;5012307;28;20084;-75
2022/04/16 01:47:39;;;;;;;11.85;8.45;;;;;;;14.69;40.24;102550.28;5012528;28;20409;-75
2022/04/16 01:50:09;;;;;;;11.52;7.57;;;;;;;14.71;40.50;102559.28;5010166;28;20072;-75
2022/04/16 01:52:37;;;;;;;10.30;8.30;;;;;;;14.71;40.22;102558.41;5012346;28;20115;-75
2022/04/16 01:55:05;;;;;;;9.43;7.57;;;;;;;14.71;40.37;102562.00;4995225;28;20060;-75
2022/04/16 01:57:32;;;;;;;10.90;7.57;;;;;;;14.72;40.09;102573.84;5003585;28;20193;-75
2022/04/16 01:59:59;;;;;;;10.05;7.15;;;;;;;14.72;40.23;102562.91;5008761;28;20061;-75
2022/04/16 02:02:25;;;;;;;10.68;7.55;;;;;;;14.74;40.03;102564.56;5003559;28;20198;-75
2022/04/16 02:04:52;;;;;;;10.65;7.43;;;;;;;14.75;40.09;102559.97;5009151;28;20114;-75
2022/04/16 02:07:19;;;;;;;10.85;7.28;;;;;;;14.76;40.12;102559.00;5008118;28;20078;-75
2022/04/16 02:09:45;;;;;;;9.65;7.32;;;;;;;14.78;40.21;102566.16;5010773;28;20096;-75
2022/04/16 02:12:13;;;;;;;12.02;7.88;;;;;;;14.78;39.96;102563.44;5007610;28;20586;-75
2022/04/16 02:14:40;;;;;;;11.07;7.90;;;;;;;14.79;40.13;102570.66;5008549;28;20069;-75
2022/04/16 02:17:06;;;;;;;11.27;8.18;;;;;;;14.80;39.85;102579.75;5009804;28;20132;-75
2022/04/16 02:19:34;;;;;;;12.23;8.80;;;;;;;14.79;39.95;102584.34;5008806;28;20591;-75
2022/04/16 02:22:00;;;;;;;12.85;9.65;;;;;;;14.80;39.89;102583.38;5008831;28;20411;-75
2022/04/16 02:24:27;;;;;;;12.93;9.00;;;;;;;14.80;40.26;102582.47;4997513;28;20057;-75
2022/04/16 02:26:58;;;;;;;12.52;9.23;;;;;;;14.80;39.78;102588.84;5008171;28;20508;-75
2022/04/16 02:29:25;;;;;;;12.60;9.38;;;;;;;14.77;40.20;102593.59;4999640;28;20417;-75
2022/04/16 02:31:52;;;;;;;12.38;9.20;;;;;;;14.76;40.32;102591.81;4998056;28;20054;-75
2022/04/16 02:34:19;;;;;;;12.10;9.05;;;;;;;14.73;40.08;102594.75;5007011;28;20077;-75
2022/04/16 02:36:46;;;;;;;12.65;8.68;;;;;;;14.71;40.06;102592.09;4992350;28;20116;-75
2022/04/16 02:39:14;;;;;;;11.57;8.65;;;;;;;14.70;40.17;102592.16;5009367;28;20136;-75
2022/04/16 02:41:42;;;;;;;12.00;8.88;;;;;;;14.69;40.14;102596.75;4999328;28;20062;-75
2022/04/16 02:47:05;;;;;;;11.50;8.43;;;;;;;14.68;39.88;102596.84;4998510;28;20498;-75
2022/04/16 02:47:08;;;;;;;13.60;9.25;;;;;;;14.65;40.47;102594.28;5005232;28;20058;-75
2022/04/16 02:49:39;;;;;;;12.93;9.07;;;;;;;14.66;40.28;102593.31;5006106;28;20058;-75
2022/04/16 02:52:09;;;;;;;12.25;9.00;;;;;;;14.64;40.47;102596.16;5010509;28;20104;-75
2022/04/16 02:54:37;;;;;;;13.93;9.10;;;;;;;14.62;40.14;102597.19;4994381;28;20050;-75
2022/04/16 02:57:04;;;;;;;11.98;8.80;;;;;;;14.61;40.44;102599.03;5007964;28;20050;-75
2022/04/16 02:59:33;;;;;;;12.57;9.32;;;;;;;14.59;40.34;102600.97;5008748;28;20133;-75
2022/04/16 03:02:00;;;;;;;11.68;9.15;;;;;;;14.57;40.31;102602.03;4996602;28;20137;-75
2022/04/16 03:04:27;;;;;;;11.85;9.15;;;;;;;14.56;40.45;102598.41;5005220;28;20538;-75
2022/04/16 03:06:53;;;;;;;12.98;8.82;;;;;;;14.55;40.39;102602.13;5003722;28;20054;-75
2022/04/16 03:09:20;;;;;;;13.98;9.75;;;;;;;14.53;40.25;102601.31;5006117;28;20108;-75
2022/04/16 03:11:47;;;;;;;13.38;9.18;;;;;;;14.52;40.31;102604.13;5008327;28;20165;-75
2022/04/16 03:19:45;;;;;;;14.32;10.15;;;;;;;14.43;40.45;102602.78;5000557;28;20549;-75
2022/04/16 03:22:13;;;;;;;13.38;9.52;;;;;;;14.43;40.37;102613.72;5008862;28;20133;-75
2022/04/16 03:24:40;;;;;;;12.55;9.60;;;;;;;14.40;40.48;102611.16;4998719;28;20054;-75
2022/04/16 03:27:07;;;;;;;12.95;9.85;;;;;;;14.39;40.85;102613.03;5001832;28;20497;-75
2022/04/16 03:29:34;;;;;;;13.85;9.52;;;;;;;14.37;40.59;102608.56;5004352;28;20053;-75
2022/04/16 03:32:00;;;;;;;13.65;9.70;;;;;;;14.35;40.56;102615.94;5006853;28;20478;-75
2022/04/16 03:34:27;;;;;;;15.30;10.18;;;;;;;14.32;40.80;102616.13;5005978;28;20104;-75
2022/04/16 03:36:54;;;;;;;13.60;9.68;;;;;;;14.32;40.58;102619.75;5003986;28;20050;-75
2022/04/16 03:39:21;;;;;;;13.20;10.23;;;;;;;14.31;41.03;102625.31;5007553;28;20058;-75
2022/04/16 03:41:48;;;;;;;14.75;10.05;;;;;;;14.29;40.83;102632.69;5009323;28;20168;-75
2022/04/16 03:44:15;;;;;;;14.18;10.70;;;;;;;14.26;40.90;102630.09;5000779;28;20050;-75
2022/04/16 03:46:41;;;;;;;14.32;10.57;;;;;;;14.21;41.10;102627.63;5006754;28;20552;-75
2022/04/16 03:49:08;;;;;;;15.05;11.48;;;;;;;14.18;41.15;102624.19;4999197;28;20062;-74
2022/04/16 03:51:35;;;;;;;15.10;10.70;;;;;;;14.17;41.18;102634.22;5005122;28;20041;-75
2022/04/16 04:02:17;;;;;;;15.32;10.73;;;;;;;13.99;41.44;102630.66;5007788;28;20088;-75
2022/04/16 04:04:43;;;;;;;15.63;10.48;;;;;;;13.98;41.24;102628.00;4998586;28;20050;-75
2022/04/16 04:07:13;;;;;;;16.27;11.73;;;;;;;13.97;41.42;102624.38;4999136;28;20134;-75
2022/04/16 04:09:39;;;;;;;17.42;11.93;;;;;;;13.92;41.38;102625.56;5006968;28;20559;-75
2022/04/16 04:12:10;;;;;;;16.92;11.40;;;;;;;13.93;42.15;102628.22;5003568;28;20669;-75
2022/04/16 04:14:39;;;;;;;16.35;11.10;;;;;;;13.90;41.64;102625.66;5008010;28;20575;-75
2022/04/16 04:17:07;;;;;;;15.23;11.07;;;;;;;13.88;41.50;102630.31;5006632;28;20141;-75
2022/04/16 04:19:35;;;;;;;16.90;11.88;;;;;;;13.88;41.62;102632.16;5005699;28;20078;-75
2022/04/16 04:22:06;;;;;;;16.13;11.93;;;;;;;13.84;41.79;102630.53;5003896;28;20109;-75
2022/04/16 04:24:33;;;;;;;15.82;11.60;;;;;;;13.83;41.91;102643.34;5000307;28;20081;-75
2022/04/16 04:27:01;;;;;;;17.45;11.32;;;;;;;13.83;41.85;102646.06;4994956;28;20058;-75
2022/04/16 04:29:27;;;;;;;14.85;10.77;;;;;;;13.83;41.54;102651.53;5001231;28;20136;-75
2022/04/16 04:31:55;;;;;;;16.23;11.50;;;;;;;13.81;42.08;102650.72;5004070;28;20141;-75
2022/04/16 04:34:22;;;;;;;15.65;11.32;;;;;;;13.77;41.96;102657.28;5005838;28;20129;-75
2022/04/16 04:36:49;;;;;;;16.77;12.20;;;;;;;13.78;41.92;102660.91;5006639;28;20449;-75
2022/04/16 04:39:22;;;;;;;;;;;;;;;13.50;42.73;102659.59;5008533;28;20058;-75
2022/04/16 04:41:48;;;;;;;16.42;10.73;;;;;;;13.70;41.76;102661.28;4994104;28;19965;-75
2022/04/16 04:44:15;;;;;;;17.52;12.20;;;;;;;13.73;42.12;102668.47;5004329;28;20081;-75
2022/04/16 04:46:42;;;;;;;15.07;11.38;;;;;;;13.75;41.75;102661.97;5005214;28;20108;-75
2022/04/16 04:49:11;;;;;;;16.50;10.93;;;;;;;13.69;42.01;102668.59;5007967;28;20512;-75
2022/04/16 04:51:41;;;;;;;17.23;11.27;;;;;;;13.70;42.64;102666.75;5004977;28;20559;-75
2022/04/16 04:54:08;;;;;;;16.42;11.02;;;;;;;13.68;42.11;102671.41;4996284;28;20534;-75
2022/04/16 04:56:35;;;;;;;15.23;11.38;;;;;;;13.67;42.30;102665.06;4999199;28;20482;-74
2022/04/16 04:59:03;;;;;;;16.58;11.43;;;;;;;13.68;42.24;102671.41;5005996;28;20512;-74
2022/04/16 05:01:30;;;;;;;15.25;10.73;;;;;;;13.67;42.44;102680.56;5003855;28;20133;-74
2022/04/16 05:03:56;;;;;;;15.63;11.27;;;;;;;13.66;42.15;102684.28;5004943;28;20528;-74
2022/04/16 05:06:23;;;;;;;17.55;12.02;;;;;;;13.66;42.35;102685.16;4999203;28;20068;-75
2022/04/16 05:08:51;;;;;;;15.68;11.32;;;;;;;13.66;42.09;102681.53;5002089;28;20062;-74
2022/04/16 05:11:18;;;;;;;14.82;11.05;;;;;;;13.67;42.39;102680.56;4993818;28;20512;-74
2022/04/16 05:13:44;;;;;;;15.20;11.23;;;;;;;13.68;42.37;102685.94;5007984;28;20084;-74
2022/04/16 05:16:12;;;;;;;17.25;11.23;;;;;;;13.69;42.52;102689.56;5006387;28;20133;-74
2022/04/16 05:18:41;;;;;;;16.45;11.35;;;;;;;13.70;42.42;102691.31;5006837;28;20082;-75
2022/04/16 05:21:07;;;;;;;15.25;11.18;;;;;;;13.70;42.90;102692.22;4993980;28;20442;-74
2022/04/16 05:23:35;;;;;;;17.13;11.77;;;;;;;13.71;42.82;102687.63;5004627;28;20058;-74
2022/04/16 05:26:10;;;;;;;16.33;11.15;;;;;;;13.75;42.69;102705.63;4999844;28;20101;-75
2022/04/16 05:28:38;;;;;;;14.50;9.73;;;;;;;13.81;42.78;102702.59;4998666;28;20493;-75
2022/04/16 05:31:06;;;;;;;14.88;10.10;;;;;;;13.86;42.95;102702.34;4997813;28;20046;-75
2022/04/16 05:36:18;;;;;;;14.68;10.65;;;;;;;13.93;42.73;102710.13;5011387;28;20046;-75
2022/04/16 05:38:46;;;;;;;16.20;11.48;;;;;;;13.98;42.67;102712.66;5008513;28;20053;-75
2022/04/16 05:41:12;;;;;;;17.58;11.38;;;;;;;14.01;42.48;102712.47;5012414;28;20133;-75
2022/04/16 05:43:39;;;;;;;15.95;11.07;;;;;;;14.03;42.56;102724.22;5009500;28;20108;-75
2022/04/16 05:46:06;;;;;;;16.35;11.10;;;;;;;14.07;42.64;102723.09;5014662;28;20054;-75
2022/04/16 05:48:33;;;;;;;15.88;10.48;;;;;;;14.09;42.58;102722.03;5013419;28;20108;-75
2022/04/16 05:51:00;;;;;;;15.82;10.55;;;;;;;14.15;42.79;102729.06;5004415;28;20112;-75
2022/04/16 05:53:26;;;;;;;15.38;10.18;;;;;;;14.17;42.54;102738.03;5008904;28;20100;-75
2022/04/16 05:55:53;;;;;;;15.75;10.80;;;;;;;14.20;42.83;102735.16;5006307;28;20349;-75
2022/04/16 05:58:20;;;;;;;15.30;9.85;;;;;;;14.26;42.94;102742.13;5003762;28;20542;-75
2022/04/16 06:00:46;;;;;;;15.55;10.80;;;;;;;14.30;42.79;102735.56;5003788;28;20134;-75
2022/04/16 06:03:19;;;;;;;15.85;10.73;;;;;;;14.36;42.96;102737.94;5008784;28;20532;-75
2022/04/16 06:05:46;;;;;;;14.57;10.13;;;;;;;14.44;42.88;102743.94;5004270;28;20058;-75
2022/04/16 06:08:12;;;;;;;15.70;10.38;;;;;;;14.48;43.21;102736.47;5004796;28;20519;-75
2022/04/16 06:10:39;;;;;;;16.05;10.50;;;;;;;14.54;42.62;102747.06;5009237;28;20161;-74
2022/04/16 06:13:09;;;;;;;16.52;10.52;;;;;;;14.59;43.02;102742.22;5011439;28;20079;-74
2022/04/16 06:15:39;;;;;;;15.43;10.52;;;;;;;14.68;42.87;102756.28;5000756;28;20066;-74
2022/04/16 06:18:06;;;;;;;14.70;10.68;;;;;;;14.71;43.02;102752.50;5007279;28;20054;-74
2022/04/16 06:20:33;;;;;;;14.98;10.20;;;;;;;14.76;42.92;102751.28;5000046;28;20543;-75
2022/04/16 06:22:59;;;;;;;15.35;10.73;;;;;;;14.81;42.86;102757.41;5009859;28;20307;-74
2022/04/16 06:25:26;;;;;;;15.18;10.70;;;;;;;14.87;43.17;102753.44;5008622;28;20140;-75
2022/04/16 06:27:53;;;;;;;16.10;11.18;;;;;;;14.96;43.16;102760.25;5002838;28;20132;-76
2022/04/16 06:30:19;;;;;;;16.88;11.23;;;;;;;15.04;43.21;102758.00;5007920;28;20093;-76
2022/04/16 06:32:46;;;;;;;14.98;10.93;;;;;;;15.12;42.99;102761.19;5002137;28;20053;-75
2022/04/16 06:35:13;;;;;;;15.13;10.95;;;;;;;15.19;43.03;102754.41;5003820;28;20054;-75
2022/04/16 06:37:41;;;;;;;15.98;11.07;;;;;;;15.29;42.74;102763.88;5001862;28;20043;-76
2022/04/16 06:40:09;;;;;;;14.63;10.15;;;;;;;15.38;42.92;102751.50;5009018;28;20137;-75
2022/04/16 06:42:37;;;;;;;15.35;10.50;;;;;;;15.45;42.59;102756.53;5003713;28;20077;-75
2022/04/16 06:45:05;;;;;;;15.38;10.20;;;;;;;15.55;42.45;102763.31;5006807;28;20394;-75
2022/04/16 06:47:33;;;;;;;14.40;10.18;;;;;;;15.61;42.59;102762.06;5006573;28;20413;-75
2022/04/16 06:49:59;;;;;;;15.10;9.80;;;;;;;15.70;42.64;102760.66;5009647;28;20148;-75
2022/04/16 06:52:26;;;;;;;14.55;9.77;;;;;;;15.79;42.41;102771.06;5000848;28;20056;-74
2022/04/16 06:54:55;;;;;;;14.48;9.35;;;;;;;15.88;42.74;102768.69;5008242;28;20045;-74
2022/04/16 06:57:22;;;;;;;15.30;11.05;;;;;;;15.99;42.42;102762.53;5006038;28;20081;-74
2022/04/16 06:59:48;;;;;;;12.85;9.10;;;;;;;16.11;42.39;102764.56;5007090;28;20089;-75
2022/04/16 07:02:15;;;;;;;15.77;10.77;;;;;;;16.25;42.31;102761.88;5010454;28;20042;-73
2022/04/16 07:04:42;;;;;;;14.75;10.20;;;;;;;16.40;41.83;102765.53;4996755;28;20057;-74
2022/04/16 07:07:09;;;;;;;13.38;9.45;;;;;;;16.58;42.01;102763.53;5001451;28;20054;-74
2022/04/16 07:09:39;;;;;;;14.43;10.63;;;;;;;16.76;41.54;102765.16;5009196;28;20159;-74
2022/04/16 07:12:10;;;;;;;14.07;9.68;;;;;;;16.92;41.17;102774.19;5004591;28;20054;-74
2022/04/16 07:14:40;;;;;;;13.38;10.18;;;;;;;17.08;40.85;102772.25;5005301;28;20103;-74
2022/04/16 07:17:07;;;;;;;14.75;10.05;;;;;;;17.22;41.03;102771.34;5009248;28;20073;-74
2022/04/16 07:19:35;;;;;;;13.02;9.52;;;;;;;17.34;40.38;102772.44;5009798;28;20430;-74
2022/04/16 07:22:03;;;;;;;14.60;10.43;;;;;;;17.42;40.37;102768.22;5008907;28;20133;-73
2022/04/16 07:24:29;;;;;;;12.43;8.93;;;;;;;17.55;39.87;102764.63;5009283;28;20065;-74
2022/04/16 07:26:57;;;;;;;11.50;8.93;;;;;;;17.65;40.02;102766.72;5007630;28;20065;-74
2022/04/16 07:29:25;;;;;;;14.00;9.40;;;;;;;17.74;39.32;102765.22;5004212;28;20521;-74
2022/04/16 07:31:52;;;;;;;12.90;9.15;;;;;;;17.80;39.27;102760.19;5002398;28;20069;-74
2022/04/16 07:34:19;;;;;;;13.00;8.65;;;;;;;17.91;39.50;102764.09;5007623;28;20581;-75
2022/04/16 07:36:46;;;;;;;11.05;7.93;;;;;;;18.02;39.07;102761.50;5003428;28;20112;-75
2022/04/16 07:39:13;;;;;;;12.45;8.73;;;;;;;18.12;38.94;102768.13;5001855;28;20058;-74
2022/04/16 07:41:40;;;;;;;11.88;8.13;;;;;;;18.24;38.90;102770.06;5009313;28;20053;-74
2022/04/16 07:44:07;;;;;;;10.35;8.02;;;;;;;18.34;38.58;102765.69;5003418;28;20540;-75
2022/04/16 07:46:34;;;;;;;11.30;7.72;;;;;;;18.45;38.33;102764.91;5007752;28;20456;-74
2022/04/16 07:49:02;;;;;;;10.18;7.53;;;;;;;18.57;38.33;102762.25;5006676;28;20212;-74
2022/04/16 07:51:32;;;;;;;9.70;6.95;;;;;;;18.67;38.46;102761.59;5002230;28;20046;-74
2022/04/16 07:53:59;;;;;;;10.23;7.30;;;;;;;18.77;38.11;102769.09;5007271;28;20058;-74
2022/04/16 07:56:26;;;;;;;9.55;6.88;;;;;;;18.90;37.49;102761.72;5001288;28;20125;-74
2022/04/16 07:58:56;;;;;;;9.75;6.70;;;;;;;19.00;37.57;102764.69;5001709;28;20136;-74
2022/04/16 08:01:22;;;;;;;9.55;6.78;;;;;;;19.10;36.95;102760.28;4998748;28;20042;-74
2022/04/16 08:03:49;;;;;;;9.05;7.05;;;;;;;19.20;36.48;102769.63;5005716;28;20540;-74
2022/04/16 08:06:16;;;;;;;9.77;6.75;;;;;;;19.27;36.49;102761.81;5003401;28;20500;-74
2022/04/16 08:08:42;;;;;;;8.38;6.35;;;;;;;19.33;36.32;102755.84;5006664;28;20382;-74
2022/04/16 08:11:10;;;;;;;9.02;6.70;;;;;;;19.39;36.56;102752.63;5000741;28;20131;-73
2022/04/16 08:13:37;;;;;;;9.68;7.22;;;;;;;19.46;36.09;102751.19;5003551;28;20418;-74
2022/04/16 08:16:05;;;;;;;9.57;6.70;;;;;;;19.52;35.78;102758.16;5002465;28;20108;-74
2022/04/16 08:18:31;;;;;;;9.85;7.22;;;;;;;19.55;35.30;102756.03;5000095;28;20053;-74
2022/04/16 08:20:58;;;;;;;9.85;7.15;;;;;;;19.59;35.16;102757.59;5002223;28;20057;-76
2022/04/16 08:23:26;;;;;;;8.25;6.35;;;;;;;19.63;35.24;102761.84;5000020;28;20120;-74
2022/04/16 08:25:54;;;;;;;8.05;6.28;;;;;;;19.65;35.23;102762.63;5001589;28;20272;-75
2022/04/16 08:28:20;;;;;;;8.65;6.20;;;;;;;19.67;34.91;102757.00;4998526;28;20049;-76
2022/04/16 08:30:47;;;;;;;7.75;5.50;;;;;;;19.68;34.82;102764.28;4993121;28;20091;-76
2022/04/16 08:33:15;;;;;;;9.32;5.82;;;;;;;19.71;34.83;102761.28;5003161;28;20096;-75
2022/04/16 08:35:43;;;;;;;9.07;6.07;;;;;;;19.72;34.81;102765.78;5007544;28;20078;-76
2022/04/16 08:38:11;;;;;;;8.48;5.70;;;;;;;19.75;34.57;102766.47;5004014;28;20133;-75
2022/04/16 08:40:38;;;;;;;8.32;6.30;;;;;;;19.80;34.60;102766.09;4995494;28;20429;-75
2022/04/16 08:43:12;;;;;;;8.75;6.32;;;;;;;19.82;34.68;102763.22;5002571;28;20053;-74
2022/04/16 08:45:40;;;;;;;8.15;6.35;;;;;;;19.84;34.19;102764.00;5006256;28;20440;-74
2022/04/16 08:48:08;;;;;;;9.65;6.60;;;;;;;19.84;34.20;102762.13;5008295;28;20054;-74
2022/04/16 08:50:36;;;;;;;7.50;5.80;;;;;;;19.89;34.03;102778.31;5005559;28;20501;-73
2022/04/16 08:53:03;;;;;;;8.05;6.15;;;;;;;19.86;33.77;102771.13;5005112;28;20077;-74
2022/04/16 08:55:30;;;;;;;7.75;5.72;;;;;;;19.86;34.08;102771.13;5003755;28;20088;-77
2022/04/16 08:57:57;;;;;;;7.45;5.47;;;;;;;19.88;34.21;102766.41;4999435;28;20056;-79
2022/04/16 09:00:24;;;;;;;7.47;4.90;;;;;;;19.90;33.54;102772.69;5003747;28;20053;-75
2022/04/16 09:02:52;;;;;;;6.68;4.72;;;;;;;19.93;33.59;102769.66;5007879;28;20054;-76
2022/04/16 09:05:20;;;;;;;6.85;4.45;;;;;;;19.95;33.98;102770.44;4998850;28;20104;-77
2022/04/16 09:07:56;;;;;;;7.00;4.85;;;;;;;20.03;33.17;102767.09;5009676;28;20084;-76
2022/04/16 09:10:27;;;;;;;6.00;4.20;;;;;;;20.10;33.01;102776.66;5008573;28;20485;-76
2022/04/16 09:12:59;;;;;;;6.45;4.47;;;;;;;20.14;33.46;102770.81;5007117;28;20501;-77
2022/04/16 09:15:27;;;;;;;6.60;4.35;;;;;;;20.22;33.40;102774.84;5006869;28;20086;-76
2022/04/16 09:18:04;;;;;;;6.30;4.30;;;;;;;20.31;32.35;102774.13;5007069;28;20054;-77
2022/04/16 09:20:31;;;;;;;6.32;4.55;;;;;;;20.36;32.99;102781.09;5000697;28;20061;-75
2022/04/16 09:22:58;;;;;;;6.07;4.30;;;;;;;20.42;32.99;102777.00;5004720;28;20129;-75
2022/04/16 09:25:29;;;;;;;7.18;4.60;;;;;;;20.51;32.02;102779.00;5001679;28;20121;-76
2022/04/16 09:27:56;;;;;;;5.72;4.15;;;;;;;20.53;32.20;102779.75;5002682;28;20054;-75
2022/04/16 09:30:31;;;;;;;5.57;3.95;;;;;;;20.58;32.14;102779.41;5008383;28;20449;-74
2022/04/16 09:32:59;;;;;;;5.68;4.13;;;;;;;20.63;31.92;102777.16;5004537;28;20045;-74
2022/04/16 09:35:37;;;;;;;5.68;3.60;;;;;;;20.70;31.21;102783.97;5005275;28;20089;-75
2022/04/16 09:38:12;;;;;;;;;;;;;;;20.40;32.25;102782.63;5007840;28;20050;-75
2022/04/16 09:40:39;;;;;;;4.78;2.92;;;;;;;20.65;31.58;102773.28;5007494;28;19976;-75
2022/04/16 09:43:07;;;;;;;3.88;2.97;;;;;;;20.75;31.63;102784.50;5006063;28;20046;-75
2022/04/16 09:45:38;;;;;;;4.68;3.03;;;;;;;20.80;31.04;102782.22;5004538;28;20092;-75
2022/04/16 09:48:09;;;;;;;4.63;3.17;;;;;;;20.81;30.74;102771.06;5010306;28;20081;-75
2022/04/16 09:50:37;;;;;;;4.97;3.15;;;;;;;20.81;30.81;102775.72;4999473;28;20054;-75
2022/04/16 09:53:06;;;;;;;5.35;3.45;;;;;;;20.86;30.54;102778.97;5006605;28;20132;-76
2022/04/16 09:55:32;;;;;;;5.07;3.30;;;;;;;20.85;30.97;102771.69;5003366;28;20101;-75
2022/04/16 09:58:04;;;;;;;5.50;3.88;;;;;;;20.88;30.64;102772.34;4998117;28;20104;-75
2022/04/16 10:00:38;;;;;;;4.95;3.55;;;;;;;20.88;29.88;102775.09;5004808;28;20520;-75
2022/04/16 10:03:26;;;;;;;5.68;3.42;;;;;;;20.86;30.77;102768.81;5009566;28;20045;-76
2022/04/16 10:05:54;;;;;;;5.65;4.00;;;;;;;20.88;30.32;102766.81;5005868;28;20050;-76
2022/04/16 10:08:22;;;;;;;5.45;3.85;;;;;;;20.88;30.48;102765.94;5004368;28;20368;-76
2022/04/16 10:10:54;;;;;;;4.60;3.10;;;;;;;20.88;30.25;102766.81;5002614;28;20054;-75
2022/04/16 10:13:22;;;;;;;4.67;3.23;;;;;;;20.88;30.52;102757.66;4994443;28;20068;-75
2022/04/16 10:16:04;;;;;;;4.40;3.00;;;;;;;20.93;29.20;102760.91;5004851;28;20077;-75
2022/04/16 10:18:34;;;;;;;4.35;2.85;;;;;;;20.92;30.31;102764.66;4998373;28;20068;-75
2022/04/16 10:21:02;;;;;;;5.03;3.80;;;;;;;20.96;30.05;102762.56;5007734;28;20649;-75
2022/04/16 10:23:36;;;;;;;;;;;;;;;20.69;30.35;102761.00;5009638;28;20127;-75
2022/04/16 10:26:04;;;;;;;5.28;3.47;;;;;;;20.97;29.62;102764.31;4992200;28;20392;-75
2022/04/16 10:28:38;;;;;;;4.55;3.15;;;;;;;21.04;29.35;102751.75;5007021;28;20085;-75
2022/04/16 10:31:05;;;;;;;5.30;3.25;;;;;;;21.06;29.64;102769.09;5010679;28;20049;-76
2022/04/16 10:33:32;;;;;;;5.07;3.15;;;;;;;21.09;29.69;102769.72;5009920;28;20046;-75
2022/04/16 10:36:01;;;;;;;5.10;3.20;;;;;;;21.14;29.65;102769.34;5009532;28;20140;-75
2022/04/16 10:38:40;;;;;;;4.38;3.25;;;;;;;21.19;28.69;102761.59;5007048;28;20481;-76
2022/04/16 10:41:14;;;;;;;4.32;3.00;;;;;;;21.21;28.20;102763.25;4996972;28;20049;-76
2022/04/16 10:43:54;;;;;;;4.55;3.25;;;;;;;21.23;29.24;102771.41;5005100;28;20207;-75
2022/04/16 10:46:21;;;;;;;5.03;3.35;;;;;;;21.29;29.01;102764.50;5005951;28;20206;-76
2022/04/16 10:48:50;;;;;;;4.68;3.42;;;;;;;21.32;29.07;102762.38;5013562;28;20096;-76
2022/04/16 10:51:22;;;;;;;4.30;3.17;;;;;;;21.37;27.91;102753.69;5004262;28;20125;-76
2022/04/16 10:53:49;;;;;;;;;;;;;;;21.07;29.32;102757.94;4996984;28;20136;-76
2022/04/16 10:56:20;;;;;;;4.80;3.17;;;;;;;21.35;28.63;102752.94;5007717;28;19921;-76
2022/04/16 10:59:00;;;;;;;5.68;3.40;;;;;;;21.40;26.90;102757.09;5010000;28;20137;-76
2022/04/16 11:01:29;;;;;;;4.95;3.38;;;;;;;21.44;28.41;102752.16;5010674;28;20504;-76
2022/04/16 11:03:57;;;;;;;5.10;3.55;;;;;;;21.46;28.31;102747.41;5009658;28;20137;-76
2022/04/16 11:06:35;;;;;;;5.68;3.67;;;;;;;21.52;27.80;102744.13;5009403;28;20460;-76
2022/04/16 11:09:02;;;;;;;4.22;3.13;;;;;;;21.53;28.83;102749.53;5009613;28;20100;-76
2022/04/16 11:11:29;;;;;;;5.47;3.40;;;;;;;21.59;28.69;102739.84;5008588;28;20082;-76
2022/04/16 11:13:57;;;;;;;5.40;3.50;;;;;;;21.65;28.55;102742.09;5007970;28;20509;-76
2022/04/16 11:16:23;;;;;;;5.43;3.70;;;;;;;21.72;28.29;102737.81;5009344;28;20058;-76
2022/04/16 11:18:50;;;;;;;5.05;3.15;;;;;;;21.78;27.96;102736.41;5009787;28;20089;-77
2022/04/16 11:21:21;;;;;;;5.72;3.22;;;;;;;21.84;28.17;102735.88;5010016;28;20085;-77
2022/04/16 11:23:50;;;;;;;5.13;3.55;;;;;;;21.86;27.92;102731.97;5008931;28;20458;-77
2022/04/16 11:34:35;;;;;;;5.03;3.75;;;;;;;21.98;28.13;102727.34;5009066;28;20124;-77
2022/04/16 11:37:22;;;;;;;5.68;3.78;;;;;;;22.02;27.68;102729.69;5009727;28;20471;-77
2022/04/16 11:40:05;;;;;;;5.38;3.90;;;;;;;22.11;27.23;102736.34;5009785;28;20464;-77
2022/04/16 11:42:32;;;;;;;5.90;4.15;;;;;;;22.12;28.04;102729.78;4996645;28;20054;-76
2022/04/16 11:44:59;;;;;;;4.93;3.85;;;;;;;22.16;27.34;102734.03;5000273;28;20464;-77
2022/04/16 11:47:27;;;;;;;6.70;4.85;;;;;;;22.20;27.27;102730.00;5007287;28;20504;-77
2022/04/16 11:50:05;;;;;;;6.07;3.95;;;;;;;22.25;27.39;102727.72;5011173;28;20141;-84